Time;durP1;ratioP1;P1;durP2;ratioP2;P2;SDS_P1;SDS_P2;PMS_P1;PMS_P2;Temp;Humidity;BMP_temperature;BMP_pressure;BME280_temperature;BME280_humidity;BME280_pressure;Samples;Min_cycle;Max_cycle;Signal;HPM_P1;HPM_P2
2023/07/12 00:00:59;;;;;;;0.20;0.20;;;19.80;99.90;;;;;;5046255;28;20426;-77
2023/07/12 00:03:24;;;;;;;0.10;0.10;;;19.80;99.90;;;;;;5024048;28;20038;-76
2023/07/12 00:05:51;;;;;;;0.20;0.20;;;19.80;99.90;;;;;;5026601;28;20048;-77
2023/07/12 00:08:26;;;;;;;0.20;0.20;;;19.80;99.90;;;;;;5048437;28;20040;-77
2023/07/12 00:10:53;;;;;;;0.20;0.20;;;19.80;99.90;;;;;;5047640;28;20505;-77
2023/07/12 00:13:19;;;;;;;0.20;0.20;;;19.80;99.90;;;;;;5047640;28;20102;-76
2023/07/12 00:15:47;;;;;;;0.20;0.20;;;19.70;99.90;;;;;;5030468;28;20037;-77
2023/07/12 00:18:26;;;;;;;0.20;0.20;;;19.70;99.90;;;;;;5028331;28;20131;-77
2023/07/12 00:20:53;;;;;;;0.20;0.20;;;19.70;99.90;;;;;;5027225;28;20041;-76
2023/07/12 00:23:20;;;;;;;0.20;0.20;;;19.60;99.90;;;;;;5044534;28;20049;-77
2023/07/12 00:25:48;;;;;;;0.20;0.20;;;19.60;99.90;;;;;;5029119;28;20098;-77
2023/07/12 00:28:26;;;;;;;0.20;0.20;;;19.60;99.90;;;;;;5027775;28;20135;-78
2023/07/12 00:30:56;;;;;;;0.20;0.20;;;19.60;99.90;;;;;;5045012;28;20487;-78
2023/07/12 00:33:23;;;;;;;0.25;0.25;;;19.60;99.90;;;;;;5041012;28;20421;-77
2023/07/12 00:35:50;;;;;;;0.20;0.20;;;19.50;99.90;;;;;;5046375;28;20043;-76
2023/07/12 00:38:23;;;;;;;0.20;0.20;;;19.50;99.90;;;;;;5047830;28;20044;-77
2023/07/12 00:41:10;;;;;;;0.20;0.20;;;19.50;99.90;;;;;;5026063;28;20037;-78
2023/07/12 00:43:40;;;;;;;0.20;0.20;;;19.50;99.90;;;;;;5028257;28;20136;-77
2023/07/12 00:46:11;;;;;;;0.20;0.20;;;19.40;99.90;;;;;;5044870;28;20036;-76
2023/07/12 00:48:37;;;;;;;0.10;0.10;;;19.40;99.90;;;;;;5027503;28;20507;-76
2023/07/12 00:51:24;;;;;;;0.20;0.20;;;19.40;99.90;;;;;;5024681;28;20045;-76
2023/07/12 00:53:50;;;;;;;0.20;0.20;;;19.40;99.90;;;;;;5044113;28;20037;-76
2023/07/12 00:56:16;;;;;;;0.20;0.20;;;19.40;99.90;;;;;;5046265;28;20481;-76
2023/07/12 00:58:46;;;;;;;0.20;0.20;;;19.40;99.90;;;;;;5024612;28;20039;-77
2023/07/12 01:01:14;;;;;;;0.20;0.20;;;19.40;99.90;;;;;;5046643;28;20572;-76
2023/07/12 01:03:44;;;;;;;0.20;0.20;;;19.40;99.90;;;;;;5045429;28;20056;-77
2023/07/12 01:06:14;;;;;;;0.22;0.22;;;19.40;99.90;;;;;;5044603;28;20048;-77
2023/07/12 01:08:43;;;;;;;0.20;0.20;;;19.40;99.90;;;;;;5040363;28;20045;-77
2023/07/12 01:11:13;;;;;;;0.10;0.10;;;19.40;99.90;;;;;;5047717;28;20044;-76
2023/07/12 01:13:42;;;;;;;0.20;0.20;;;19.40;99.90;;;;;;5042996;28;20053;-76
2023/07/12 01:16:10;;;;;;;0.20;0.20;;;19.30;99.90;;;;;;5047711;28;20049;-77
2023/07/12 01:18:36;;;;;;;0.20;0.20;;;19.40;99.90;;;;;;5027554;28;20083;-77
2023/07/12 01:21:09;;;;;;;0.17;0.17;;;19.30;99.90;;;;;;5042491;28;20392;-77
2023/07/12 01:23:35;;;;;;;0.20;0.20;;;19.50;99.90;;;;;;5048388;28;20476;-77
2023/07/12 01:26:15;;;;;;;0.20;0.20;;;19.20;99.90;;;;;;5035524;28;20033;-77
2023/07/12 01:28:41;;;;;;;0.20;0.20;;;19.20;99.90;;;;;;5042984;28;20040;-77
2023/07/12 01:31:07;;;;;;;0.20;0.20;;;19.20;99.90;;;;;;5035490;28;20122;-77
2023/07/12 01:33:33;;;;;;;0.20;0.20;;;19.20;99.90;;;;;;5052245;28;20088;-77
2023/07/12 01:35:58;;;;;;;0.20;0.20;;;19.20;99.90;;;;;;5034013;28;20043;-77
2023/07/12 01:38:24;;;;;;;0.17;0.17;;;19.10;99.90;;;;;;5032993;28;20069;-77
2023/07/12 01:40:50;;;;;;;0.20;0.20;;;19.10;99.90;;;;;;5034290;28;20048;-78
2023/07/12 01:43:15;;;;;;;0.20;0.20;;;19.10;99.90;;;;;;5049734;28;20053;-77
2023/07/12 01:45:41;;;;;;;0.20;0.20;;;19.10;99.90;;;;;;5053042;28;20037;-77
2023/07/12 01:48:07;;;;;;;0.20;0.20;;;19.10;99.90;;;;;;5033741;28;20044;-77
2023/07/12 01:50:32;;;;;;;0.20;0.20;;;19.10;99.90;;;;;;5029830;28;20052;-77
2023/07/12 01:52:58;;;;;;;0.20;0.20;;;19.00;99.90;;;;;;5033329;28;20049;-77
2023/07/12 01:55:24;;;;;;;0.20;0.20;;;19.00;99.90;;;;;;5051978;28;20300;-78
2023/07/12 01:57:49;;;;;;;0.20;0.20;;;19.00;99.90;;;;;;5032977;28;20048;-78
2023/07/12 02:00:15;;;;;;;0.20;0.20;;;19.00;99.90;;;;;;5032051;28;20045;-77
2023/07/12 02:02:41;;;;;;;0.17;0.17;;;19.00;99.90;;;;;;5034424;28;20033;-78
2023/07/12 02:05:07;;;;;;;0.82;0.82;;;18.90;99.90;;;;;;5051965;28;20366;-78
2023/07/12 02:07:33;;;;;;;0.20;0.20;;;18.90;99.90;;;;;;5034429;28;20053;-78
2023/07/12 02:10:14;;;;;;;0.10;0.10;;;18.90;99.90;;;;;;5033123;28;20102;-78
2023/07/12 02:12:40;;;;;;;0.15;0.15;;;18.90;99.90;;;;;;5050351;28;20067;-78
2023/07/12 02:15:06;;;;;;;0.20;0.20;;;18.90;99.90;;;;;;5031362;28;20116;-78
2023/07/12 02:17:31;;;;;;;0.20;0.20;;;18.80;99.90;;;;;;5033713;28;20107;-78
2023/07/12 02:19:57;;;;;;;0.15;0.15;;;18.70;99.90;;;;;;5033747;28;20045;-78
2023/07/12 02:22:23;;;;;;;0.20;0.20;;;18.70;99.90;;;;;;5048113;28;20048;-78
2023/07/12 02:24:49;;;;;;;0.10;0.10;;;18.70;99.90;;;;;;5050545;28;20033;-78
2023/07/12 02:27:14;;;;;;;0.13;0.13;;;18.60;99.90;;;;;;5030683;28;20128;-78
2023/07/12 02:29:40;;;;;;;0.20;0.20;;;18.60;99.90;;;;;;5030353;28;20075;-78
2023/07/12 02:32:06;;;;;;;0.20;0.20;;;18.60;99.90;;;;;;5050032;28;20102;-78
2023/07/12 02:34:32;;;;;;;0.10;0.10;;;18.60;99.90;;;;;;5013244;28;20048;-78
2023/07/12 02:36:57;;;;;;;0.20;0.20;;;18.60;99.90;;;;;;5046438;28;20040;-78
2023/07/12 02:39:23;;;;;;;0.20;0.20;;;18.50;99.90;;;;;;5032359;28;20057;-78
2023/07/12 02:41:49;;;;;;;0.20;0.20;;;18.50;99.90;;;;;;5031801;28;20045;-78
2023/07/12 02:44:14;;;;;;;0.20;0.20;;;18.50;99.90;;;;;;5048948;28;20037;-78
2023/07/12 02:46:40;;;;;;;0.20;0.20;;;18.50;99.90;;;;;;5032583;28;20099;-79
2023/07/12 02:49:06;;;;;;;0.20;0.20;;;18.50;99.90;;;;;;5033295;28;20481;-78
2023/07/12 02:51:31;;;;;;;0.20;0.20;;;18.40;99.90;;;;;;5033592;28;20098;-79
2023/07/12 02:53:57;;;;;;;0.20;0.20;;;18.50;99.90;;;;;;5050142;28;20095;-78
2023/07/12 02:56:23;;;;;;;0.20;0.20;;;18.40;99.90;;;;;;5033677;28;20196;-78
2023/07/12 02:58:48;;;;;;;0.15;0.15;;;18.40;99.90;;;;;;5030345;28;20049;-78
2023/07/12 03:01:14;;;;;;;0.20;0.20;;;18.30;99.90;;;;;;5049162;28;20037;-78
2023/07/12 03:03:40;;;;;;;0.20;0.20;;;18.30;99.90;;;;;;5032923;28;20037;-77
2023/07/12 03:06:11;;;;;;;0.20;0.20;;;18.30;99.90;;;;;;5027781;28;20061;-77
2023/07/12 03:08:37;;;;;;;0.20;0.20;;;18.30;99.90;;;;;;5028861;28;20053;-76
2023/07/12 03:11:04;;;;;;;0.20;0.20;;;18.20;99.90;;;;;;5050090;28;20064;-78
2023/07/12 03:13:31;;;;;;;0.20;0.20;;;18.20;99.90;;;;;;5029606;28;20779;-77
2023/07/12 03:15:56;;;;;;;0.20;0.20;;;18.20;99.90;;;;;;5032526;28;20134;-78
2023/07/12 03:18:22;;;;;;;0.20;0.20;;;18.10;99.90;;;;;;5043873;28;20083;-77
2023/07/12 03:20:48;;;;;;;0.20;0.20;;;18.10;99.90;;;;;;5048338;28;20045;-77
2023/07/12 03:23:13;;;;;;;0.20;0.20;;;18.10;99.90;;;;;;5031553;28;20037;-78
2023/07/12 03:25:43;;;;;;;0.20;0.20;;;18.00;99.90;;;;;;5033422;28;20496;-77
2023/07/12 03:28:09;;;;;;;0.20;0.20;;;18.00;99.90;;;;;;5048368;28;20059;-77
2023/07/12 03:30:34;;;;;;;0.13;0.13;;;18.00;99.90;;;;;;5032619;28;20044;-78
2023/07/12 03:33:00;;;;;;;0.20;0.20;;;18.00;99.90;;;;;;5049110;28;20053;-77
2023/07/12 03:35:27;;;;;;;0.20;0.20;;;18.00;99.90;;;;;;5050217;28;20043;-78
2023/07/12 03:37:53;;;;;;;0.20;0.20;;;18.00;99.90;;;;;;5029424;28;20071;-78
2023/07/12 03:40:18;;;;;;;0.20;0.20;;;18.00;99.90;;;;;;5027367;28;20045;-78
2023/07/12 03:42:44;;;;;;;0.20;0.20;;;18.00;99.90;;;;;;5047770;28;20032;-77
2023/07/12 03:45:10;;;;;;;0.20;0.20;;;18.00;99.90;;;;;;5047432;28;20084;-77
2023/07/12 03:47:36;;;;;;;0.10;0.10;;;18.00;99.90;;;;;;5049204;28;20435;-78
2023/07/12 03:50:02;;;;;;;0.13;0.13;;;18.00;99.90;;;;;;5047112;28;20044;-77
2023/07/12 03:52:28;;;;;;;0.20;0.20;;;18.00;99.90;;;;;;5045435;28;20128;-77
2023/07/12 03:54:54;;;;;;;0.20;0.20;;;17.90;99.90;;;;;;5030652;28;20132;-77
2023/07/12 03:57:19;;;;;;;0.17;0.17;;;17.60;99.90;;;;;;5031542;28;20044;-77
2023/07/12 03:59:45;;;;;;;0.20;0.20;;;18.00;99.90;;;;;;5030097;28;20037;-78
2023/07/12 04:02:11;;;;;;;0.20;0.20;;;17.90;99.90;;;;;;5031724;28;20134;-77
2023/07/12 04:04:36;;;;;;;0.20;0.20;;;17.90;99.90;;;;;;5032164;28;20036;-77
2023/07/12 04:07:02;;;;;;;0.20;0.20;;;17.90;99.90;;;;;;5031492;28;20104;-77
2023/07/12 04:09:28;;;;;;;0.10;0.10;;;17.90;99.90;;;;;;5031762;28;20439;-77
2023/07/12 04:11:54;;;;;;;0.20;0.20;;;17.90;99.90;;;;;;5032865;28;20056;-77
2023/07/12 04:14:20;;;;;;;0.10;0.10;;;17.90;99.90;;;;;;5028986;28;20064;-78
2023/07/12 04:16:47;;;;;;;0.20;0.20;;;17.90;99.90;;;;;;5049104;28;20036;-77
2023/07/12 04:19:13;;;;;;;0.10;0.10;;;17.90;99.90;;;;;;5048734;28;20094;-78
2023/07/12 04:21:38;;;;;;;0.15;0.15;;;17.80;99.90;;;;;;5049102;28;20699;-78
2023/07/12 04:24:04;;;;;;;0.20;0.20;;;17.90;99.90;;;;;;5022601;28;20564;-78
2023/07/12 04:26:31;;;;;;;0.20;0.20;;;17.80;99.90;;;;;;5032756;28;20049;-77
2023/07/12 04:28:56;;;;;;;0.20;0.20;;;17.90;99.90;;;;;;5047627;28;20045;-77
2023/07/12 04:31:22;;;;;;;0.20;0.20;;;17.90;99.90;;;;;;5030895;28;20049;-77
2023/07/12 04:33:49;;;;;;;0.20;0.20;;;17.90;99.90;;;;;;5049117;28;20393;-77
2023/07/12 04:36:17;;;;;;;0.20;0.20;;;17.80;99.90;;;;;;5048227;28;20206;-77
2023/07/12 04:38:43;;;;;;;0.10;0.10;;;17.80;99.90;;;;;;5031395;28;20400;-82
2023/07/12 04:41:09;;;;;;;0.20;0.20;;;17.90;99.90;;;;;;5031972;28;20049;-82
2023/07/12 04:43:35;;;;;;;0.15;0.15;;;17.80;99.90;;;;;;5028405;28;20052;-83
2023/07/12 04:46:01;;;;;;;0.20;0.20;;;17.80;99.90;;;;;;5048879;28;20440;-83
2023/07/12 04:48:27;;;;;;;0.20;0.20;;;17.80;99.90;;;;;;5046803;28;20051;-83
2023/07/12 04:50:54;;;;;;;0.10;0.10;;;17.80;99.90;;;;;;5031132;28;20059;-82
2023/07/12 04:53:21;;;;;;;0.17;0.17;;;17.80;99.90;;;;;;5029735;28;20076;-83
2023/07/12 04:55:50;;;;;;;0.20;0.20;;;17.80;99.90;;;;;;5031454;28;20048;-82
2023/07/12 04:58:17;;;;;;;0.20;0.20;;;17.80;99.90;;;;;;5033083;28;20114;-83
2023/07/12 05:00:43;;;;;;;0.20;0.20;;;17.80;99.90;;;;;;5028569;28;20151;-83
2023/07/12 05:03:09;;;;;;;0.20;0.20;;;17.80;99.90;;;;;;5029486;28;20052;-82
2023/07/12 05:05:38;;;;;;;0.20;0.20;;;17.80;99.90;;;;;;5029822;28;20045;-82
2023/07/12 05:08:05;;;;;;;0.10;0.10;;;17.80;99.90;;;;;;5027599;28;20041;-82
2023/07/12 05:10:31;;;;;;;0.10;0.10;;;17.80;99.90;;;;;;5046523;28;20041;-83
2023/07/12 05:12:57;;;;;;;0.20;0.20;;;17.80;99.90;;;;;;5046110;28;20064;-81
2023/07/12 05:15:23;;;;;;;0.10;0.10;;;17.80;99.90;;;;;;5044695;28;20485;-82
2023/07/12 05:17:48;;;;;;;0.20;0.20;;;17.80;99.90;;;;;;5047789;28;20036;-82
2023/07/12 05:20:15;;;;;;;0.13;0.13;;;17.80;99.90;;;;;;5048074;28;20656;-82
2023/07/12 05:22:41;;;;;;;0.20;0.20;;;17.90;99.90;;;;;;5030439;28;20040;-82
2023/07/12 05:25:07;;;;;;;0.20;0.20;;;17.80;99.90;;;;;;5031024;28;20084;-82
2023/07/12 05:27:33;;;;;;;0.20;0.20;;;17.80;99.90;;;;;;5046030;28;20041;-82
2023/07/12 05:30:00;;;;;;;0.20;0.20;;;17.90;99.90;;;;;;5029361;28;20091;-82
2023/07/12 05:32:26;;;;;;;0.20;0.20;;;17.80;99.90;;;;;;5049537;28;20063;-81
2023/07/12 05:34:52;;;;;;;0.17;0.17;;;17.90;99.90;;;;;;5032748;28;20533;-82
2023/07/12 05:37:18;;;;;;;0.20;0.20;;;17.90;99.90;;;;;;5048490;28;20067;-82
2023/07/12 05:39:44;;;;;;;0.20;0.20;;;18.00;99.90;;;;;;5027794;28;20373;-81
2023/07/12 05:42:09;;;;;;;0.10;0.10;;;18.00;99.90;;;;;;5026889;28;20090;-81
2023/07/12 05:44:35;;;;;;;0.20;0.20;;;18.00;99.90;;;;;;5030448;28;20049;-82
2023/07/12 05:47:01;;;;;;;0.20;0.20;;;18.00;99.90;;;;;;5029790;28;20048;-81
2023/07/12 05:49:27;;;;;;;0.20;0.20;;;18.00;99.90;;;;;;5025911;28;20064;-82
2023/07/12 05:51:53;;;;;;;0.20;0.20;;;18.00;99.90;;;;;;5026674;28;20041;-82
2023/07/12 05:54:19;;;;;;;0.20;0.20;;;18.00;99.90;;;;;;5030317;28;20044;-82
2023/07/12 05:56:45;;;;;;;0.30;0.28;;;18.10;99.90;;;;;;5029044;28;20060;-82
2023/07/12 05:59:11;;;;;;;0.20;0.20;;;18.10;99.90;;;;;;5030329;28;20485;-82
2023/07/12 06:01:37;;;;;;;0.20;0.20;;;18.10;99.90;;;;;;5049594;28;20110;-83
2023/07/12 06:04:02;;;;;;;0.10;0.10;;;18.10;99.90;;;;;;5029386;28;20041;-82
2023/07/12 06:06:28;;;;;;;0.20;0.20;;;18.20;99.90;;;;;;5027296;28;20129;-83
2023/07/12 06:08:54;;;;;;;0.20;0.20;;;18.10;99.90;;;;;;5047990;28;20037;-82
2023/07/12 06:11:20;;;;;;;0.20;0.20;;;18.10;99.90;;;;;;5055243;28;20412;-82
2023/07/12 06:13:45;;;;;;;0.20;0.20;;;18.10;99.90;;;;;;5033453;28;20477;-82
2023/07/12 06:16:11;;;;;;;0.20;0.20;;;18.10;99.90;;;;;;5034838;28;20055;-82
2023/07/12 06:18:37;;;;;;;0.17;0.17;;;18.10;99.90;;;;;;5052882;28;20041;-83
2023/07/12 06:21:08;;;;;;;0.20;0.20;;;18.10;99.90;;;;;;5052396;28;20036;-83
2023/07/12 06:23:33;;;;;;;;;;;18.10;99.90;;;;;;5034901;28;20033;-81
2023/07/12 06:25:59;;;;;;;0.20;0.20;;;18.20;99.90;;;;;;5034974;28;19929;-82
2023/07/12 06:28:26;;;;;;;0.20;0.20;;;18.20;99.90;;;;;;5030464;28;20131;-82
2023/07/12 06:30:52;;;;;;;0.20;0.20;;;18.20;99.90;;;;;;5034410;28;20633;-82
2023/07/12 06:33:18;;;;;;;0.17;0.17;;;18.30;99.90;;;;;;5048211;28;20472;-81
2023/07/12 06:35:44;;;;;;;0.20;0.20;;;18.30;99.90;;;;;;5049934;28;20044;-82
2023/07/12 06:38:10;;;;;;;0.10;0.10;;;18.30;99.90;;;;;;5050734;28;20041;-82
2023/07/12 06:40:38;;;;;;;0.20;0.20;;;18.40;99.90;;;;;;5051738;28;20497;-82
2023/07/12 06:43:03;;;;;;;0.20;0.20;;;18.40;99.90;;;;;;5050222;28;20420;-81
2023/07/12 06:45:29;;;;;;;0.20;0.20;;;18.50;99.90;;;;;;5049914;28;20043;-81
2023/07/12 06:47:55;;;;;;;0.22;0.22;;;18.50;99.90;;;;;;5048169;28;20041;-81
2023/07/12 06:50:21;;;;;;;0.20;0.20;;;18.60;99.90;;;;;;5045526;28;20127;-82
2023/07/12 06:52:47;;;;;;;0.20;0.20;;;18.60;99.90;;;;;;5043891;28;20069;-80
2023/07/12 06:55:13;;;;;;;0.10;0.10;;;18.70;99.90;;;;;;5038157;28;20540;-82
2023/07/12 06:57:38;;;;;;;0.15;0.15;;;18.80;99.90;;;;;;5040410;28;20034;-82
2023/07/12 07:00:08;;;;;;;0.20;0.20;;;18.80;99.90;;;;;;5043167;28;20404;-82
2023/07/12 07:02:34;;;;;;;0.20;0.20;;;18.80;99.90;;;;;;5053081;28;20067;-82
2023/07/12 07:05:00;;;;;;;0.10;0.10;;;18.80;99.90;;;;;;5051116;28;20107;-81
2023/07/12 07:07:27;;;;;;;0.20;0.20;;;18.80;99.90;;;;;;5051215;28;20379;-82
2023/07/12 07:09:52;;;;;;;0.10;0.10;;;18.80;99.90;;;;;;5057132;28;20399;-82
2023/07/12 07:12:18;;;;;;;0.20;0.20;;;18.90;99.90;;;;;;5048276;28;20037;-81
2023/07/12 07:14:44;;;;;;;0.10;0.10;;;19.00;99.90;;;;;;5045895;28;20110;-82
2023/07/12 07:17:11;;;;;;;0.20;0.20;;;19.00;99.90;;;;;;5049867;28;20041;-82
2023/07/12 07:19:37;;;;;;;0.20;0.20;;;19.10;99.90;;;;;;5051347;28;20392;-82
2023/07/12 07:22:04;;;;;;;0.20;0.20;;;19.20;99.90;;;;;;5049232;28;20558;-81
2023/07/12 07:24:29;;;;;;;0.20;0.20;;;19.30;99.90;;;;;;5050321;28;20520;-81
2023/07/12 07:26:55;;;;;;;0.20;0.20;;;19.30;99.90;;;;;;5048994;28;20041;-82
2023/07/12 07:29:22;;;;;;;0.20;0.20;;;19.30;99.90;;;;;;5048349;28;20041;-81
2023/07/12 07:31:48;;;;;;;0.20;0.20;;;19.40;99.90;;;;;;5051266;28;20555;-81
2023/07/12 07:34:14;;;;;;;0.20;0.20;;;19.50;99.90;;;;;;5030199;28;20052;-82
2023/07/12 07:36:40;;;;;;;0.20;0.20;;;19.50;99.90;;;;;;5030424;28;20037;-81
2023/07/12 07:39:07;;;;;;;0.10;0.10;;;19.60;99.90;;;;;;5031127;28;20119;-82
2023/07/12 07:41:33;;;;;;;0.10;0.10;;;19.60;99.90;;;;;;5050170;28;20037;-81
2023/07/12 07:43:59;;;;;;;0.20;0.20;;;19.60;99.90;;;;;;5047902;28;20288;-82
2023/07/12 07:46:25;;;;;;;0.20;0.20;;;19.60;99.90;;;;;;5033580;28;20455;-82
2023/07/12 07:48:51;;;;;;;0.20;0.20;;;19.60;99.90;;;;;;5032692;28;20049;-81
2023/07/12 07:51:17;;;;;;;0.20;0.20;;;19.60;99.90;;;;;;5049322;28;20106;-82
2023/07/12 07:53:43;;;;;;;0.20;0.20;;;19.60;99.90;;;;;;5030271;28;20377;-82
2023/07/12 07:56:09;;;;;;;0.20;0.20;;;19.60;99.90;;;;;;5029888;28;20063;-82
2023/07/12 07:58:35;;;;;;;0.20;0.20;;;19.60;99.90;;;;;;5031921;28;20041;-82
2023/07/12 08:01:01;;;;;;;0.10;0.10;;;19.60;99.90;;;;;;5038493;28;20036;-80
2023/07/12 08:03:26;;;;;;;0.10;0.10;;;19.70;99.90;;;;;;5034096;28;20041;-83
2023/07/12 08:05:52;;;;;;;0.20;0.20;;;19.60;99.90;;;;;;5051181;28;20123;-82
2023/07/12 08:08:20;;;;;;;0.20;0.20;;;19.60;99.90;;;;;;5049933;28;20037;-83
2023/07/12 08:10:46;;;;;;;0.20;0.20;;;19.60;99.90;;;;;;5030575;28;20076;-80
2023/07/12 08:13:12;;;;;;;0.20;0.20;;;19.50;99.90;;;;;;5048882;28;20076;-82
2023/07/12 08:15:39;;;;;;;0.10;0.10;;;19.50;99.90;;;;;;5032344;28;20155;-82
2023/07/12 08:18:05;;;;;;;0.10;0.10;;;19.50;99.90;;;;;;5031444;28;20554;-83
2023/07/12 08:20:33;;;;;;;0.20;0.20;;;19.50;99.90;;;;;;5032769;28;20044;-82
2023/07/12 08:22:59;;;;;;;0.10;0.10;;;19.40;99.90;;;;;;5031606;28;20382;-83
2023/07/12 08:25:24;;;;;;;0.17;0.17;;;19.40;99.90;;;;;;5050713;28;20052;-82
2023/07/12 08:27:50;;;;;;;0.10;0.10;;;19.50;99.90;;;;;;5031210;28;20275;-81
2023/07/12 08:30:16;;;;;;;0.20;0.20;;;19.50;99.90;;;;;;5031264;28;20076;-82
2023/07/12 08:32:41;;;;;;;0.20;0.20;;;19.40;99.90;;;;;;5045847;28;20508;-82
2023/07/12 08:35:10;;;;;;;0.20;0.20;;;19.40;99.90;;;;;;5032439;28;20083;-81
2023/07/12 08:37:35;;;;;;;0.20;0.20;;;19.40;99.90;;;;;;5053495;28;20496;-81
2023/07/12 08:40:01;;;;;;;0.20;0.20;;;19.30;99.90;;;;;;5051159;28;20044;-82
2023/07/12 08:42:34;;;;;;;0.20;0.20;;;19.30;99.90;;;;;;5032221;28;20128;-83
2023/07/12 08:45:02;;;;;;;0.20;0.20;;;19.30;99.90;;;;;;5044998;28;20088;-82
2023/07/12 08:47:31;;;;;;;0.20;0.20;;;19.30;99.90;;;;;;5033033;28;20048;-82
2023/07/12 08:49:57;;;;;;;0.20;0.20;;;19.40;99.90;;;;;;5029542;28;20101;-81
2023/07/12 08:52:30;;;;;;;0.20;0.20;;;19.40;99.90;;;;;;5032014;28;20048;-82
2023/07/12 08:54:58;;;;;;;0.20;0.20;;;19.50;99.90;;;;;;5047827;28;20403;-82
2023/07/12 08:57:28;;;;;;;0.20;0.20;;;19.50;99.90;;;;;;5032109;28;20065;-83
2023/07/12 09:00:07;;;;;;;0.10;0.10;;;19.50;99.90;;;;;;5015436;28;20051;-82
2023/07/12 09:02:34;;;;;;;0.20;0.20;;;19.50;99.90;;;;;;5037936;28;20051;-82
2023/07/12 09:05:14;;;;;;;0.20;0.20;;;19.50;99.90;;;;;;5049742;28;20504;-82
2023/07/12 09:07:56;;;;;;;0.20;0.20;;;19.50;99.90;;;;;;5045388;28;20440;-82
2023/07/12 09:10:33;;;;;;;0.20;0.20;;;19.50;99.90;;;;;;5052184;28;20486;-83
2023/07/12 09:13:00;;;;;;;0.20;0.20;;;19.50;99.90;;;;;;5050317;28;20079;-82
2023/07/12 09:15:56;;;;;;;0.20;0.20;;;19.60;99.90;;;;;;5061450;28;20049;-80
2023/07/12 09:18:28;;;;;;;0.10;0.10;;;19.60;99.90;;;;;;5030718;28;20106;-82
2023/07/12 09:20:55;;;;;;;0.20;0.20;;;19.60;99.90;;;;;;5031901;28;20045;-80
2023/07/12 09:23:21;;;;;;;0.17;0.17;;;19.70;99.90;;;;;;5049606;28;20033;-81
2023/07/12 09:25:54;;;;;;;0.20;0.20;;;19.70;99.90;;;;;;5049753;28;20059;-81
2023/07/12 09:28:19;;;;;;;0.20;0.20;;;19.80;99.90;;;;;;5059550;28;20055;-81
2023/07/12 09:30:45;;;;;;;0.20;0.20;;;20.00;99.90;;;;;;5052197;28;20053;-82
2023/07/12 09:33:23;;;;;;;0.13;0.13;;;20.00;99.90;;;;;;5053250;28;20052;-83
2023/07/12 09:35:49;;;;;;;0.20;0.20;;;20.10;99.90;;;;;;5027200;28;20141;-81
2023/07/12 09:38:21;;;;;;;0.20;0.20;;;20.10;99.90;;;;;;5026359;28;20503;-81
2023/07/12 09:40:50;;;;;;;0.20;0.20;;;20.10;99.90;;;;;;5033185;28;20037;-82
2023/07/12 09:43:25;;;;;;;0.20;0.20;;;20.10;99.90;;;;;;5044402;28;20045;-83
2023/07/12 09:46:10;;;;;;;0.20;0.20;;;20.10;99.90;;;;;;5049550;28;20044;-83
2023/07/12 09:48:58;;;;;;;0.20;0.20;;;20.10;99.90;;;;;;5043308;28;20616;-82
2023/07/12 09:51:35;;;;;;;0.20;0.20;;;20.10;99.90;;;;;;5029663;28;20037;-83
2023/07/12 09:54:27;;;;;;;0.20;0.20;;;20.10;99.90;;;;;;5028389;28;20493;-84
2023/07/12 09:57:01;;;;;;;0.13;0.13;;;20.20;99.90;;;;;;5032152;28;20048;-80
2023/07/12 09:59:33;;;;;;;0.20;0.20;;;20.30;99.90;;;;;;5051540;28;20131;-83
2023/07/12 10:02:17;;;;;;;0.10;0.10;;;20.40;99.90;;;;;;5026197;28;20041;-82
2023/07/12 10:04:46;;;;;;;0.20;0.20;;;20.50;99.90;;;;;;5025350;28;20135;-82
2023/07/12 10:07:40;;;;;;;0.20;0.20;;;20.60;99.90;;;;;;5026702;28;21000;-81
2023/07/12 10:10:35;;;;;;;0.20;0.20;;;20.70;99.90;;;;;;5026108;28;20045;-82
2023/07/12 10:13:21;;;;;;;0.20;0.20;;;20.70;99.90;;;;;;5024039;28;20063;-81
2023/07/12 10:15:48;;;;;;;0.20;0.20;;;20.80;99.90;;;;;;5025612;28;20052;-82
2023/07/12 10:18:22;;;;;;;0.20;0.20;;;20.80;99.90;;;;;;5048518;28;20033;-81
2023/07/12 10:20:49;;;;;;;0.20;0.20;;;20.80;99.90;;;;;;5031701;28;20103;-81
2023/07/12 10:23:16;;;;;;;0.20;0.20;;;20.80;99.90;;;;;;5029613;28;20052;-82
2023/07/12 10:25:46;;;;;;;0.20;0.20;;;20.80;99.90;;;;;;5026012;28;20136;-81
2023/07/12 10:28:17;;;;;;;0.20;0.20;;;20.90;99.90;;;;;;5054026;28;20052;-82
2023/07/12 10:30:46;;;;;;;0.20;0.20;;;20.90;99.90;;;;;;5033296;28;20041;-82
2023/07/12 10:33:21;;;;;;;0.20;0.20;;;21.00;99.90;;;;;;5046610;28;20048;-83
2023/07/12 10:35:49;;;;;;;0.13;0.13;;;20.90;99.90;;;;;;5047808;28;20124;-82
2023/07/12 10:38:17;;;;;;;0.20;0.20;;;20.90;99.90;;;;;;5024966;28;20364;-83
2023/07/12 10:40:52;;;;;;;0.20;0.20;;;20.90;99.90;;;;;;5031875;28;20060;-82
2023/07/12 10:43:35;;;;;;;0.20;0.20;;;20.90;99.90;;;;;;5030450;28;20389;-83
2023/07/12 10:46:34;;;;;;;0.20;0.20;;;21.00;99.90;;;;;;5032873;28;20073;-83
2023/07/12 10:49:12;;;;;;;0.20;0.20;;;21.10;99.90;;;;;;4995621;28;20053;-83
2023/07/12 10:51:40;;;;;;;0.20;0.20;;;21.30;99.90;;;;;;5031833;28;20045;-82
2023/07/12 10:54:29;;;;;;;0.20;0.20;;;21.40;99.90;;;;;;5047557;28;20040;-82
2023/07/12 10:57:01;;;;;;;0.20;0.20;;;21.40;99.90;;;;;;5031742;28;20428;-82
2023/07/12 10:59:32;;;;;;;0.20;0.20;;;21.40;99.90;;;;;;5022806;28;20120;-85
2023/07/12 11:02:04;;;;;;;0.20;0.20;;;21.50;99.90;;;;;;5039947;28;20037;-82
2023/07/12 11:04:29;;;;;;;0.20;0.20;;;21.50;99.90;;;;;;5051729;28;20077;-82
2023/07/12 11:07:25;;;;;;;0.15;0.15;;;21.50;99.90;;;;;;5049153;28;20128;-82
2023/07/12 11:09:51;;;;;;;0.17;0.17;;;21.60;99.90;;;;;;5030379;28;20126;-82
2023/07/12 11:12:29;;;;;;;0.20;0.20;;;21.70;99.90;;;;;;5029376;28;20133;-82
2023/07/12 11:15:06;;;;;;;0.20;0.20;;;21.80;99.90;;;;;;5024233;28;20045;-82
2023/07/12 11:18:10;;;;;;;0.28;0.28;;;21.90;99.90;;;;;;5029888;28;20076;-83
2023/07/12 11:20:59;;;;;;;0.20;0.20;;;22.00;99.90;;;;;;5032202;28;20128;-82
2023/07/12 11:23:25;;;;;;;0.20;0.20;;;22.20;99.90;;;;;;5028730;28;20041;-82
2023/07/12 11:25:57;;;;;;;0.20;0.20;;;22.20;99.90;;;;;;5026660;28;20106;-83
2023/07/12 11:28:23;;;;;;;0.20;0.20;;;22.20;99.90;;;;;;5030269;28;20051;-82
2023/07/12 11:31:16;;;;;;;0.20;0.20;;;22.20;99.90;;;;;;5047355;28;20049;-83
2023/07/12 11:34:15;;;;;;;0.30;0.30;;;22.30;99.90;;;;;;5010217;28;20053;-82
2023/07/12 11:36:43;;;;;;;0.20;0.20;;;22.40;99.90;;;;;;4990884;28;20421;-83
2023/07/12 11:39:20;;;;;;;0.20;0.20;;;22.50;99.90;;;;;;5027919;28;20400;-83
2023/07/12 11:42:08;;;;;;;0.20;0.20;;;22.50;99.90;;;;;;5012826;28;20053;-85
2023/07/12 11:44:34;;;;;;;0.20;0.20;;;22.50;99.90;;;;;;5011692;28;20053;-83
2023/07/12 11:47:02;;;;;;;0.20;0.20;;;22.40;99.90;;;;;;5030430;28;20111;-84
2023/07/12 11:49:30;;;;;;;0.20;0.20;;;22.40;99.90;;;;;;5014216;28;20060;-83
2023/07/12 11:51:57;;;;;;;0.20;0.20;;;22.40;99.90;;;;;;5013312;28;20557;-82
2023/07/12 11:54:34;;;;;;;0.20;0.20;;;22.50;99.90;;;;;;5026092;28;20037;-82
2023/07/12 11:57:02;;;;;;;0.20;0.20;;;22.50;99.90;;;;;;5028723;28;20077;-82
2023/07/12 11:59:31;;;;;;;0.20;0.20;;;22.60;99.90;;;;;;5011515;28;20515;-82
2023/07/12 12:01:57;;;;;;;0.28;0.28;;;22.70;99.90;;;;;;5029622;28;20088;-82
2023/07/12 12:04:26;;;;;;;0.28;0.28;;;22.80;99.90;;;;;;5009618;28;20057;-82
2023/07/12 12:06:55;;;;;;;0.20;0.20;;;22.80;99.90;;;;;;5022728;28;20037;-82
2023/07/12 12:09:26;;;;;;;0.20;0.20;;;22.80;99.90;;;;;;5024924;28;20046;-82
2023/07/12 12:11:53;;;;;;;;;;;22.90;99.90;;;;;;5012762;28;20042;-82
2023/07/12 12:14:24;;;;;;;0.20;0.20;;;23.20;99.90;;;;;;5006369;28;19964;-81
2023/07/12 12:16:54;;;;;;;0.20;0.20;;;23.20;99.90;;;;;;5026262;28;20432;-83
2023/07/12 12:19:20;;;;;;;0.20;0.20;;;23.30;99.90;;;;;;5011735;28;20120;-82
2023/07/12 12:21:48;;;;;;;0.20;0.20;;;23.40;99.90;;;;;;5029585;28;20485;-83
2023/07/12 12:24:20;;;;;;;0.20;0.20;;;23.50;99.90;;;;;;5012447;28;20049;-81
2023/07/12 12:26:49;;;;;;;0.20;0.20;;;23.60;99.90;;;;;;5028132;28;20060;-80
2023/07/12 12:29:21;;;;;;;0.30;0.30;;;23.70;99.90;;;;;;5026582;28;20378;-80
2023/07/12 12:31:55;;;;;;;0.20;0.20;;;23.70;99.90;;;;;;5020151;28;20128;-80
2023/07/12 12:34:24;;;;;;;0.20;0.20;;;23.80;99.90;;;;;;5047613;28;20500;-81
2023/07/12 12:36:59;;;;;;;0.22;0.22;;;23.90;99.90;;;;;;5039493;28;20546;-80
2023/07/12 12:39:26;;;;;;;0.20;0.20;;;24.00;99.90;;;;;;5041618;28;20053;-80
2023/07/12 12:42:03;;;;;;;0.20;0.20;;;24.10;99.90;;;;;;5038004;28;20061;-80
2023/07/12 12:44:30;;;;;;;0.20;0.20;;;24.20;99.90;;;;;;5038159;28;20041;-80
2023/07/12 12:47:00;;;;;;;0.20;0.20;;;24.30;99.90;;;;;;5039469;28;20064;-80
2023/07/12 12:49:30;;;;;;;0.25;0.25;;;24.40;99.90;;;;;;5042016;28;20045;-80
2023/07/12 12:52:16;;;;;;;0.20;0.20;;;24.30;99.90;;;;;;5037701;28;20112;-80
2023/07/12 12:54:41;;;;;;;0.20;0.20;;;24.40;99.90;;;;;;5048442;28;20033;-81
2023/07/12 12:57:07;;;;;;;0.20;0.20;;;24.30;99.90;;;;;;5045616;28;20045;-80